Time;durP1;ratioP1;P1;durP2;ratioP2;P2;SDS_P1;SDS_P2;PMS_P1;PMS_P2;Temp;Humidity;BMP_temperature;BMP_pressure;BME280_temperature;BME280_humidity;BME280_pressure;Samples;Min_cycle;Max_cycle;Signal;HPM_P1;HPM_P2
2022/01/09 00:03:17;;;;;;;43.67;10.65;;;;;;;6.19;100.00;99018.31;10068190;29;20553;-80
2022/01/09 00:08:18;;;;;;;46.72;9.77;;;;;;;6.17;100.00;99035.69;10083753;29;20033;-80
2022/01/09 00:13:18;;;;;;;32.25;8.27;;;;;;;6.21;100.00;99044.94;10082695;29;20037;-80
2022/01/09 00:18:19;;;;;;;55.65;13.13;;;;;;;6.17;100.00;99052.63;10083105;29;20059;-79
2022/01/09 00:23:19;;;;;;;28.48;9.10;;;;;;;6.19;100.00;99072.06;10082710;29;20052;-80
2022/01/09 00:28:19;;;;;;;52.15;10.98;;;;;;;6.17;100.00;99084.88;10082342;29;20044;-80
2022/01/09 00:33:21;;;;;;;26.08;9.27;;;;;;;6.20;100.00;99092.50;10098595;29;20095;-80
2022/01/09 00:38:21;;;;;;;19.63;7.53;;;;;;;6.18;100.00;99093.75;10099442;29;20067;-80
2022/01/09 00:43:22;;;;;;;46.13;12.25;;;;;;;6.16;100.00;99122.69;10082196;29;20447;-79
2022/01/09 00:48:22;;;;;;;22.17;8.30;;;;;;;6.17;100.00;99132.44;10099512;29;20064;-79
2022/01/09 00:53:23;;;;;;;34.53;9.60;;;;;;;6.12;100.00;99132.22;10098549;29;20045;-78
2022/01/09 00:58:23;;;;;;;53.80;12.10;;;;;;;6.12;100.00;99138.41;10097976;29;20097;-79
2022/01/09 01:03:23;;;;;;;29.95;10.77;;;;;;;6.10;100.00;99148.56;10097566;29;20226;-79
2022/01/09 01:08:24;;;;;;;38.60;11.25;;;;;;;6.07;100.00;99154.38;10097785;29;20041;-79
2022/01/09 01:13:24;;;;;;;29.48;9.90;;;;;;;6.07;100.00;99169.69;10097345;29;20045;-79
2022/01/09 01:18:25;;;;;;;34.95;11.25;;;;;;;6.09;100.00;99179.16;10080089;29;20144;-78
2022/01/09 01:23:25;;;;;;;21.15;7.30;;;;;;;6.03;100.00;99188.06;10080567;29;20041;-80
2022/01/09 01:28:25;;;;;;;57.35;9.43;;;;;;;6.08;100.00;99203.56;10096213;29;20127;-80
2022/01/09 01:33:26;;;;;;;28.45;7.55;;;;;;;6.01;100.00;99192.81;10097472;29;20045;-80
2022/01/09 01:38:26;;;;;;;34.55;8.77;;;;;;;5.97;100.00;99226.53;10095714;29;20498;-80
2022/01/09 01:43:27;;;;;;;39.35;8.25;;;;;;;5.97;100.00;99230.03;10066170;29;20037;-79
2022/01/09 01:48:27;;;;;;;20.35;5.80;;;;;;;5.90;100.00;99239.91;10096539;29;20079;-80
2022/01/09 01:53:28;;;;;;;18.20;8.30;;;;;;;5.91;100.00;99256.88;10095664;29;20040;-80
2022/01/09 01:58:31;;;;;;;27.83;7.18;;;;;;;5.94;100.00;99267.25;10096603;29;20495;-81
2022/01/09 02:03:31;;;;;;;17.63;5.65;;;;;;;5.99;100.00;99272.81;10102836;29;20041;-81
2022/01/09 02:08:32;;;;;;;18.73;6.70;;;;;;;6.02;100.00;99292.03;10103650;29;20397;-80
2022/01/09 02:13:33;;;;;;;12.63;6.15;;;;;;;6.05;100.00;99290.78;10103650;29;20037;-82
2022/01/09 02:18:33;;;;;;;20.42;6.57;;;;;;;6.09;100.00;99308.16;10103683;29;20037;-82
2022/01/09 02:23:35;;;;;;;13.00;6.13;;;;;;;6.01;100.00;99313.75;10101840;29;20032;-81
2022/01/09 02:28:35;;;;;;;19.15;6.85;;;;;;;6.01;100.00;99329.88;10102683;29;20075;-82
2022/01/09 02:33:35;;;;;;;11.95;5.57;;;;;;;6.02;100.00;99335.00;10102503;29;20037;-82
2022/01/09 02:38:36;;;;;;;30.08;6.03;;;;;;;5.96;100.00;99340.38;10103061;29;20128;-82
2022/01/09 02:43:36;;;;;;;27.08;5.60;;;;;;;5.77;100.00;99350.88;10102548;29;20036;-82
2022/01/09 02:48:39;;;;;;;18.27;5.68;;;;;;;5.57;100.00;99358.06;10103131;29;20538;-82
2022/01/09 02:53:40;;;;;;;17.75;4.75;;;;;;;5.47;100.00;99373.75;10101964;29;20037;-82
2022/01/09 02:58:41;;;;;;;19.38;6.65;;;;;;;5.43;100.00;99388.63;10100826;29;20052;-83
2022/01/09 03:03:41;;;;;;;12.93;5.28;;;;;;;5.31;100.00;99399.91;10084833;29;20102;-83
2022/01/09 03:08:42;;;;;;;14.95;6.20;;;;;;;5.31;100.00;99412.50;10085025;29;20093;-83
2022/01/09 03:13:42;;;;;;;24.48;6.00;;;;;;;5.33;100.00;99438.13;10102447;29;20037;-82
2022/01/09 03:18:43;;;;;;;22.65;7.10;;;;;;;5.48;100.00;99424.53;10106117;29;20037;-83
2022/01/09 03:23:43;;;;;;;22.75;8.45;;;;;;;5.50;100.00;99443.97;10120597;29;20068;-81
2022/01/09 03:28:44;;;;;;;15.55;5.35;;;;;;;5.48;100.00;99462.13;10125687;29;20037;-82
2022/01/09 03:33:44;;;;;;;13.88;3.78;;;;;;;5.45;100.00;99477.81;10084711;29;20045;-83
2022/01/09 03:38:44;;;;;;;15.90;4.97;;;;;;;5.45;100.00;99469.75;10100563;29;20045;-82
2022/01/09 03:43:45;;;;;;;4.85;4.00;;;;;;;5.38;100.00;99475.09;10101191;29;20044;-82
2022/01/09 03:48:45;;;;;;;19.33;5.05;;;;;;;5.40;100.00;99491.03;10099667;29;20116;-82
2022/01/09 03:53:45;;;;;;;10.90;3.95;;;;;;;5.42;100.00;99497.00;10100211;29;20056;-82
2022/01/09 03:58:46;;;;;;;17.90;5.85;;;;;;;5.32;100.00;99500.03;10100135;29;20053;-82
2022/01/09 04:03:46;;;;;;;12.60;4.35;;;;;;;5.19;100.00;99495.44;10099332;29;20579;-82
2022/01/09 04:08:48;;;;;;;17.30;3.38;;;;;;;5.05;100.00;99504.44;10099717;29;20033;-82
2022/01/09 04:13:49;;;;;;;8.82;4.30;;;;;;;4.96;100.00;99511.78;10097825;29;20033;-82
2022/01/09 04:18:49;;;;;;;16.75;3.25;;;;;;;4.93;100.00;99522.91;10083266;29;20037;-82
2022/01/09 04:23:49;;;;;;;10.52;5.05;;;;;;;4.86;100.00;99530.91;10097927;29;20037;-81
2022/01/09 04:28:50;;;;;;;11.25;6.13;;;;;;;4.81;100.00;99536.00;10098992;29;20392;-81
2022/01/09 04:33:50;;;;;;;11.65;4.78;;;;;;;4.79;100.00;99548.81;10098424;29;20457;-82
2022/01/09 04:38:51;;;;;;;10.55;4.80;;;;;;;4.99;100.00;99558.88;10098781;29;20068;-81
2022/01/09 04:43:52;;;;;;;24.98;6.68;;;;;;;5.02;100.00;99571.91;10099731;29;20037;-81
2022/01/09 04:48:54;;;;;;;6.90;3.25;;;;;;;5.05;100.00;99566.13;10097744;29;20060;-80
2022/01/09 04:53:55;;;;;;;11.55;3.35;;;;;;;5.07;100.00;99590.91;10081535;29;20112;-81
2022/01/09 04:58:55;;;;;;;20.23;5.80;;;;;;;5.19;100.00;99592.03;10097800;29;20386;-81
2022/01/09 05:03:56;;;;;;;23.25;5.32;;;;;;;5.22;100.00;99598.88;10082534;29;20052;-81
2022/01/09 05:08:56;;;;;;;6.45;3.58;;;;;;;5.28;100.00;99601.59;10099313;29;20064;-81
2022/01/09 05:13:56;;;;;;;17.65;4.88;;;;;;;5.32;100.00;99618.97;10100634;29;20028;-80
2022/01/09 05:19:06;;;;;;;10.00;4.78;;;;;;;5.36;100.00;99622.13;10100382;29;20033;-80
2022/01/09 05:24:06;;;;;;;11.88;3.95;;;;;;;5.38;100.00;99632.66;10100502;29;20068;-80
2022/01/09 05:29:07;;;;;;;10.98;4.28;;;;;;;5.36;100.00;99641.75;10100010;29;20448;-80
2022/01/09 05:34:07;;;;;;;18.15;3.78;;;;;;;5.41;100.00;99653.75;10099018;29;20045;-81
2022/01/09 05:39:07;;;;;;;13.95;3.80;;;;;;;5.43;100.00;99647.16;10109553;29;20033;-78
2022/01/09 05:44:08;;;;;;;17.88;5.05;;;;;;;5.46;100.00;99654.81;10104795;29;20060;-80
2022/01/09 05:49:08;;;;;;;14.82;3.88;;;;;;;5.43;100.00;99671.31;10125117;29;20445;-80
2022/01/09 05:54:09;;;;;;;17.77;5.82;;;;;;;5.47;100.00;99675.28;10105412;29;20033;-80
2022/01/09 05:59:09;;;;;;;14.23;4.55;;;;;;;5.49;100.00;99683.97;10088715;29;20474;-81
2022/01/09 06:04:10;;;;;;;10.20;3.97;;;;;;;5.44;100.00;99690.94;10104026;29;20045;-81
2022/01/09 06:09:10;;;;;;;10.60;3.65;;;;;;;5.19;100.00;99701.25;10087394;29;20037;-82
2022/01/09 06:14:11;;;;;;;17.00;4.00;;;;;;;5.07;100.00;99704.44;10103629;29;20534;-82
2022/01/09 06:19:13;;;;;;;14.55;3.83;;;;;;;5.00;100.00;99706.22;10104533;29;20064;-81
2022/01/09 06:24:13;;;;;;;19.48;4.05;;;;;;;4.99;100.00;99709.94;10103800;29;20389;-82
2022/01/09 06:29:14;;;;;;;19.88;6.35;;;;;;;5.02;100.00;99719.47;10102319;29;20143;-82
2022/01/09 06:34:14;;;;;;;15.13;5.93;;;;;;;4.97;100.00;99732.59;10102045;29;20041;-82
2022/01/09 06:39:14;;;;;;;16.63;4.63;;;;;;;4.88;100.00;99745.28;10102577;29;20064;-84
2022/01/09 06:44:15;;;;;;;17.98;5.15;;;;;;;4.68;100.00;99750.41;10085743;29;20048;-85
2022/01/09 06:49:16;;;;;;;18.90;4.05;;;;;;;4.70;100.00;99753.75;10085729;29;20059;-85
2022/01/09 06:54:16;;;;;;;15.05;4.95;;;;;;;4.81;100.00;99763.16;10085363;29;20052;-84
2022/01/09 06:59:16;;;;;;;24.58;4.90;;;;;;;4.86;100.00;99774.16;10101623;29;20112;-85
2022/01/09 07:04:17;;;;;;;22.63;4.80;;;;;;;4.89;100.00;99773.78;10102623;29;20041;-85
2022/01/09 07:09:17;;;;;;;17.08;5.18;;;;;;;4.89;100.00;99768.44;10101675;29;20041;-86
2022/01/09 07:14:18;;;;;;;14.43;4.70;;;;;;;4.98;100.00;99785.22;10084935;29;20033;-85
2022/01/09 07:19:18;;;;;;;13.32;4.18;;;;;;;5.04;100.00;99776.41;10101304;29;20418;-86
2022/01/09 07:24:18;;;;;;;8.15;4.20;;;;;;;5.07;100.00;99798.38;10102033;29;20072;-86
2022/01/09 07:29:19;;;;;;;15.05;4.90;;;;;;;5.08;100.00;99808.06;10103924;29;20339;-86
2022/01/09 07:34:20;;;;;;;26.17;6.95;;;;;;;5.11;100.00;99818.44;10102057;29;20105;-89
2022/01/09 07:39:20;;;;;;;15.18;4.55;;;;;;;5.11;100.00;99821.09;10085623;29;20064;-89
2022/01/09 07:44:20;;;;;;;21.00;5.28;;;;;;;5.16;100.00;99825.06;10102682;29;20509;-89
2022/01/09 07:49:22;;;;;;;12.55;4.57;;;;;;;5.16;100.00;99839.31;10114844;29;20041;-90
2022/01/09 07:54:22;;;;;;;6.22;4.18;;;;;;;5.08;100.00;99832.22;10106811;29;20043;-89
2022/01/09 07:59:23;;;;;;;21.52;4.75;;;;;;;4.94;100.00;99834.91;10110411;29;20108;-90
2022/01/09 08:04:23;;;;;;;8.85;3.78;;;;;;;4.93;100.00;99850.19;10126381;29;20025;-85
2022/01/09 08:09:23;;;;;;;14.88;4.63;;;;;;;5.09;100.00;99866.06;10121451;29;20353;-86
2022/01/09 08:14:24;;;;;;;9.15;4.25;;;;;;;5.17;100.00;99873.22;10102607;29;20045;-87
2022/01/09 08:19:24;;;;;;;24.23;5.50;;;;;;;5.22;100.00;99888.75;10100265;29;20041;-85
2022/01/09 08:24:24;;;;;;;12.38;4.85;;;;;;;5.27;100.00;99886.34;10102359;29;20052;-87
2022/01/09 08:29:25;;;;;;;10.75;4.55;;;;;;;5.33;100.00;99894.47;10100555;29;20073;-88
2022/01/09 08:34:25;;;;;;;19.17;5.47;;;;;;;5.29;100.00;99900.38;10100976;29;20113;-89
2022/01/09 08:39:26;;;;;;;11.70;4.28;;;;;;;5.25;100.00;99902.59;10089870;29;20058;-87
2022/01/09 08:44:26;;;;;;;15.18;4.78;;;;;;;5.11;100.00;99925.78;10084759;29;20083;-85
2022/01/09 08:49:26;;;;;;;19.63;5.47;;;;;;;5.18;100.00;99920.50;10098985;29;20033;-84
2022/01/09 08:54:27;;;;;;;15.95;4.50;;;;;;;5.29;100.00;99928.03;10099680;29;20045;-83
2022/01/09 08:59:27;;;;;;;16.52;5.32;;;;;;;5.38;100.00;99930.66;10082284;29;20158;-82
2022/01/09 09:04:28;;;;;;;20.15;4.72;;;;;;;5.42;100.00;99937.28;10098352;29;20072;-82
2022/01/09 09:09:28;;;;;;;17.27;4.55;;;;;;;5.45;100.00;99944.97;10098320;29;20033;-83
2022/01/09 09:14:28;;;;;;;21.33;4.60;;;;;;;5.49;100.00;99944.44;10099566;29;20033;-83
2022/01/09 09:19:29;;;;;;;21.65;4.78;;;;;;;5.50;100.00;99958.69;10097983;29;20354;-83
2022/01/09 09:24:30;;;;;;;10.80;4.72;;;;;;;5.64;100.00;99973.91;10080739;29;20079;-88
2022/01/09 09:29:30;;;;;;;12.43;4.82;;;;;;;5.65;100.00;99983.66;10099290;29;20064;-86
2022/01/09 09:34:30;;;;;;;12.65;5.90;;;;;;;5.63;100.00;99995.63;10098157;29;20507;-82
2022/01/09 09:39:31;;;;;;;14.07;4.88;;;;;;;5.68;100.00;99993.19;10097055;29;20041;-83
2022/01/09 09:44:31;;;;;;;21.00;5.93;;;;;;;5.80;100.00;100014.00;10096398;29;20056;-85
2022/01/09 09:49:31;;;;;;;16.50;3.72;;;;;;;5.67;100.00;100007.63;10079650;29;20057;-85
2022/01/09 09:54:32;;;;;;;7.32;3.45;;;;;;;5.48;100.00;100014.41;10085687;29;20351;-87
2022/01/09 09:59:36;;;;;;;10.43;4.78;;;;;;;5.47;100.00;100015.44;10127042;29;20059;-86
2022/01/09 10:04:37;;;;;;;20.33;4.80;;;;;;;5.68;100.00;100020.03;10101382;29;20037;-87
2022/01/09 10:09:38;;;;;;;19.30;4.60;;;;;;;5.78;100.00;100026.81;10088593;29;20102;-84
2022/01/09 10:14:38;;;;;;;15.15;4.10;;;;;;;5.59;100.00;100030.06;10084783;29;20041;-86
2022/01/09 10:19:58;;;;;;;9.00;4.43;;;;;;;5.58;100.00;100034.63;10116656;29;20042;-85
2022/01/09 10:25:25;;;;;;;11.50;5.93;;;;;;;5.80;100.00;100038.19;10122677;29;20033;-85
2022/01/09 10:30:27;;;;;;;17.97;5.27;;;;;;;5.80;100.00;100048.91;10073899;29;20412;-86
2022/01/09 10:35:28;;;;;;;13.80;5.00;;;;;;;5.76;100.00;100052.19;10106715;29;20032;-87
2022/01/09 10:40:29;;;;;;;11.35;5.20;;;;;;;5.59;100.00;100046.19;10104464;29;20500;-86
2022/01/09 10:45:30;;;;;;;14.65;4.28;;;;;;;5.79;100.00;100058.00;10087256;29;20037;-85
2022/01/09 10:50:32;;;;;;;19.95;5.20;;;;;;;5.89;100.00;100054.19;10087117;29;20041;-86
2022/01/09 10:55:33;;;;;;;15.23;4.57;;;;;;;6.01;100.00;100063.50;10103524;29;20484;-87
2022/01/09 11:00:33;;;;;;;10.77;3.83;;;;;;;6.09;100.00;100059.84;10104271;29;20053;-86
2022/01/09 11:05:35;;;;;;;8.20;3.70;;;;;;;6.12;100.00;100065.66;10104721;29;20096;-86
2022/01/09 11:10:35;;;;;;;14.63;5.35;;;;;;;6.13;100.00;100075.41;10087470;29;20051;-86
2022/01/09 11:15:41;;;;;;;8.98;4.45;;;;;;;6.41;100.00;100077.38;10104345;29;20109;-86
2022/01/09 11:20:41;;;;;;;11.88;3.63;;;;;;;6.47;100.00;100085.50;10102267;29;20041;-85
2022/01/09 11:25:42;;;;;;;13.35;5.38;;;;;;;6.64;100.00;100091.50;10099822;29;20112;-86
2022/01/09 11:30:45;;;;;;;19.08;5.78;;;;;;;7.04;100.00;100094.53;10101191;29;20048;-86
2022/01/09 11:36:05;;;;;;;9.05;3.83;;;;;;;7.07;100.00;100091.44;10099734;29;20040;-85
2022/01/09 11:41:21;;;;;;;14.63;5.05;;;;;;;7.08;100.00;100095.81;10100587;29;20045;-86
2022/01/09 11:46:22;;;;;;;19.43;6.47;;;;;;;7.03;100.00;100100.13;10100533;29;20075;-87
2022/01/09 11:51:26;;;;;;;17.42;6.47;;;;;;;7.22;100.00;100107.53;10101123;29;20303;-87
2022/01/09 11:56:45;;;;;;;7.50;4.05;;;;;;;7.58;100.00;100111.94;10100933;29;20041;-86
2022/01/09 12:01:49;;;;;;;12.30;3.83;;;;;;;7.35;100.00;100117.56;10100590;29;20057;-88
2022/01/09 12:06:49;;;;;;;11.20;4.78;;;;;;;6.95;100.00;100119.91;10100091;29;20120;-86
2022/01/09 12:12:12;;;;;;;19.08;4.07;;;;;;;6.83;100.00;100126.84;10099515;29;20478;-90
2022/01/09 12:17:21;;;;;;;13.30;4.72;;;;;;;6.70;100.00;100144.53;10102792;29;20041;-89
2022/01/09 12:22:40;;;;;;;6.07;3.60;;;;;;;6.75;100.00;100150.16;10102268;29;20045;-90
2022/01/09 12:27:48;;;;;;;20.85;5.28;;;;;;;6.82;100.00;100154.78;10103733;29;20029;-90
2022/01/09 12:32:48;;;;;;;16.02;5.78;;;;;;;6.81;100.00;100163.88;10089707;29;20044;-83
2022/01/09 12:37:54;;;;;;;13.05;4.07;;;;;;;6.85;100.00;100159.78;10093859;29;20048;-86
2022/01/09 12:42:56;;;;;;;9.40;5.05;;;;;;;6.83;100.00;100168.06;10126047;29;20076;-89
2022/01/09 12:47:58;;;;;;;11.85;5.07;;;;;;;6.79;100.00;100182.06;10104526;29;20089;-88
2022/01/09 12:53:17;;;;;;;14.82;4.78;;;;;;;6.84;100.00;100182.34;10101007;29;20415;-83
2022/01/09 12:58:35;;;;;;;10.85;4.80;;;;;;;7.03;100.00;100186.28;10103626;29;20033;-83
2022/01/09 13:03:35;;;;;;;10.15;4.63;;;;;;;7.16;100.00;100189.09;10081568;29;20049;-88
2022/01/09 13:08:38;;;;;;;12.60;5.40;;;;;;;7.03;100.00;100191.66;10097863;29;20418;-87
2022/01/09 13:13:39;;;;;;;13.45;3.67;;;;;;;6.84;100.00;100190.41;10100089;29;20518;-86
2022/01/09 13:18:44;;;;;;;20.77;5.13;;;;;;;6.64;100.00;100201.78;10082328;29;20041;-85
2022/01/09 13:24:00;;;;;;;14.18;4.68;;;;;;;6.41;100.00;100211.81;10097925;29;20103;-85
2022/01/09 13:29:02;;;;;;;9.07;3.97;;;;;;;6.28;100.00;100213.31;10097899;29;20097;-80
2022/01/09 13:34:06;;;;;;;12.90;4.80;;;;;;;6.35;100.00;100226.03;10079673;29;20434;-78
2022/01/09 13:39:28;;;;;;;12.35;5.32;;;;;;;6.29;100.00;100224.94;10080171;29;20488;-77
2022/01/09 13:44:30;;;;;;;14.02;4.72;;;;;;;6.23;100.00;100225.69;10079725;29;20473;-79
2022/01/09 13:49:32;;;;;;;14.88;4.20;;;;;;;6.29;100.00;100241.91;10096108;29;20045;-79
2022/01/09 13:54:32;;;;;;;19.98;5.20;;;;;;;6.09;100.00;100238.06;10094792;29;20458;-78
2022/01/09 13:59:43;;;;;;;18.60;7.07;;;;;;;5.82;100.00;100245.72;10103102;29;20118;-78
2022/01/09 14:04:44;;;;;;;8.52;3.90;;;;;;;5.65;100.00;100252.25;10103526;29;20128;-79
2022/01/09 14:09:51;;;;;;;22.63;4.97;;;;;;;5.59;100.00;100263.72;10086671;29;20048;-78
2022/01/09 14:14:52;;;;;;;13.20;4.93;;;;;;;5.68;100.00;100265.34;10071009;29;20484;-78
2022/01/09 14:19:53;;;;;;;15.38;3.65;;;;;;;5.71;100.00;100267.66;10102628;29;20045;-77
2022/01/09 14:24:59;;;;;;;16.40;4.38;;;;;;;5.88;100.00;100280.94;10085870;29;20047;-79
2022/01/09 14:30:00;;;;;;;17.67;5.00;;;;;;;6.22;100.00;100292.06;10102683;29;20152;-77
2022/01/09 14:35:00;;;;;;;21.13;4.65;;;;;;;6.34;100.00;100299.66;10102315;29;20037;-77
2022/01/09 14:40:10;;;;;;;28.92;5.45;;;;;;;6.07;100.00;100299.25;10085354;29;20033;-79
2022/01/09 14:45:10;;;;;;;18.35;3.75;;;;;;;5.97;100.00;100306.75;10101777;29;20040;-76
2022/01/09 14:50:11;;;;;;;8.43;4.03;;;;;;;6.24;100.00;100313.38;10084584;29;20040;-76
2022/01/09 14:55:12;;;;;;;12.90;4.28;;;;;;;6.32;100.00;100317.81;10086239;29;20045;-78
2022/01/09 15:00:13;;;;;;;14.23;4.70;;;;;;;6.27;100.00;100327.28;10103929;29;20053;-78
2022/01/09 15:05:13;;;;;;;14.85;4.88;;;;;;;6.07;100.00;100326.16;10101964;29;20037;-81
2022/01/09 15:10:13;;;;;;;20.75;5.50;;;;;;;5.78;100.00;100333.06;10100343;29;20041;-79
2022/01/09 15:15:16;;;;;;;12.05;3.80;;;;;;;5.76;100.00;100340.47;10100982;29;20048;-79
2022/01/09 15:20:17;;;;;;;10.38;4.20;;;;;;;5.68;100.00;100339.69;10098978;29;20510;-79
2022/01/09 15:25:17;;;;;;;21.60;5.50;;;;;;;5.61;100.00;100344.94;10100279;29;20196;-78
2022/01/09 15:30:18;;;;;;;15.10;4.90;;;;;;;5.66;100.00;100352.47;10064983;29;20069;-78
2022/01/09 15:35:19;;;;;;;13.95;4.30;;;;;;;5.47;100.00;100353.78;10083116;29;20037;-78
2022/01/09 15:40:19;;;;;;;14.65;4.65;;;;;;;5.35;100.00;100369.44;10098866;29;20087;-78
2022/01/09 15:45:20;;;;;;;18.35;5.97;;;;;;;5.35;100.00;100369.44;10099788;29;20366;-76
2022/01/09 15:50:21;;;;;;;26.20;8.32;;;;;;;5.24;100.00;100378.75;10100339;29;20044;-77
2022/01/09 15:55:21;;;;;;;8.80;4.75;;;;;;;5.29;100.00;100391.63;10099728;29;20389;-76
2022/01/09 16:00:22;;;;;;;26.67;6.45;;;;;;;5.34;100.00;100402.69;10098641;29;20067;-77
2022/01/09 16:05:22;;;;;;;16.08;5.15;;;;;;;5.13;100.00;100397.91;10083164;29;20121;-77
2022/01/09 16:10:23;;;;;;;28.63;6.35;;;;;;;5.22;100.00;100404.09;10082408;29;20173;-76
2022/01/09 16:15:23;;;;;;;10.50;5.07;;;;;;;5.10;100.00;100404.47;10098859;29;20033;-76
2022/01/09 16:20:24;;;;;;;15.27;5.85;;;;;;;4.90;100.00;100409.41;10082490;29;20064;-77
2022/01/09 16:25:24;;;;;;;19.65;5.90;;;;;;;4.75;100.00;100411.13;10099366;29;20029;-77
2022/01/09 16:30:25;;;;;;;24.80;6.97;;;;;;;4.57;100.00;100416.72;10082471;29;20135;-76
2022/01/09 16:35:27;;;;;;;22.45;7.40;;;;;;;4.46;100.00;100424.25;10098709;29;20525;-76
2022/01/09 16:40:28;;;;;;;7.97;4.63;;;;;;;4.33;100.00;100428.28;10098935;29;20040;-77
2022/01/09 16:45:29;;;;;;;23.92;7.32;;;;;;;4.19;99.97;100437.84;10097412;29;20063;-76
2022/01/09 16:50:29;;;;;;;18.52;6.65;;;;;;;4.07;100.00;100455.25;10097175;29;20045;-77
2022/01/09 16:55:29;;;;;;;13.57;5.45;;;;;;;4.12;100.00;100463.66;10080964;29;20096;-76
2022/01/09 17:00:30;;;;;;;20.65;6.40;;;;;;;4.02;100.00;100467.47;10097349;29;20478;-76
2022/01/09 17:05:30;;;;;;;24.35;7.57;;;;;;;4.00;100.00;100470.31;10098366;29;20131;-76
2022/01/09 17:10:31;;;;;;;22.58;7.03;;;;;;;3.99;100.00;100463.31;10098842;29;20389;-76
2022/01/09 17:15:31;;;;;;;21.15;7.50;;;;;;;3.95;100.00;100483.38;10082367;29;20041;-76
2022/01/09 17:20:31;;;;;;;16.35;7.25;;;;;;;3.94;100.00;100498.59;10098300;29;20466;-76
2022/01/09 17:25:32;;;;;;;18.33;7.95;;;;;;;4.03;100.00;100504.00;10097360;29;20093;-76
2022/01/09 17:30:32;;;;;;;15.68;5.70;;;;;;;4.07;100.00;100503.47;10098164;29;20041;-77
2022/01/09 17:35:33;;;;;;;20.42;6.72;;;;;;;3.93;100.00;100513.00;10089195;29;20041;-76
2022/01/09 17:40:33;;;;;;;28.52;6.93;;;;;;;3.78;100.00;100520.00;10087771;29;20498;-76
2022/01/09 17:45:33;;;;;;;16.13;6.47;;;;;;;3.67;100.00;100517.59;10104499;29;20041;-76
2022/01/09 17:50:36;;;;;;;28.55;7.35;;;;;;;3.56;99.41;100532.13;10104098;29;20032;-76
2022/01/09 17:55:39;;;;;;;19.77;6.07;;;;;;;3.43;99.09;100537.94;10087158;29;20401;-76
2022/01/09 18:00:40;;;;;;;16.52;6.45;;;;;;;3.29;98.99;100543.88;10105262;29;20065;-76
2022/01/09 18:05:40;;;;;;;24.65;7.38;;;;;;;3.20;99.38;100558.22;10104016;29;20385;-76
2022/01/09 18:10:41;;;;;;;25.15;10.05;;;;;;;3.18;99.86;100554.84;10086991;29;20480;-76
2022/01/09 18:15:42;;;;;;;14.55;7.05;;;;;;;3.17;99.49;100569.22;10087861;29;20056;-76
2022/01/09 18:20:42;;;;;;;15.13;7.10;;;;;;;3.20;99.97;100584.97;10102085;29;20096;-76
2022/01/09 18:25:42;;;;;;;21.48;7.57;;;;;;;3.07;99.46;100585.38;10103046;29;20469;-76
2022/01/09 18:30:43;;;;;;;31.70;6.78;;;;;;;3.02;99.57;100588.50;10103032;29;20132;-76
2022/01/09 18:35:43;;;;;;;16.60;7.80;;;;;;;3.09;100.00;100606.63;10101514;29;20117;-76
2022/01/09 18:40:45;;;;;;;18.95;6.47;;;;;;;3.14;100.00;100612.34;10103140;29;20061;-76
2022/01/09 18:45:46;;;;;;;8.45;6.60;;;;;;;3.24;100.00;100615.75;10099952;29;20037;-76
2022/01/09 18:50:46;;;;;;;12.30;7.20;;;;;;;3.39;100.00;100632.94;10103093;29;20166;-76
2022/01/09 18:55:47;;;;;;;32.00;7.85;;;;;;;3.43;100.00;100636.13;10102121;29;20033;-76
2022/01/09 19:00:47;;;;;;;27.17;6.95;;;;;;;3.40;100.00;100647.97;10101138;29;20105;-77
2022/01/09 19:05:48;;;;;;;19.02;7.60;;;;;;;3.36;100.00;100657.34;10085032;29;20045;-76
2022/01/09 19:10:48;;;;;;;10.85;6.82;;;;;;;3.28;100.00;100667.97;10101622;29;20037;-76
2022/01/09 19:15:50;;;;;;;19.17;8.18;;;;;;;3.34;100.00;100670.03;10084887;29;20466;-76
2022/01/09 19:20:50;;;;;;;20.65;7.18;;;;;;;3.21;100.00;100674.94;10102130;29;20044;-76
2022/01/09 19:25:50;;;;;;;28.05;6.68;;;;;;;3.02;99.84;100683.97;10101523;29;20048;-76
2022/01/09 19:30:51;;;;;;;15.38;6.30;;;;;;;2.89;100.00;100684.38;10087559;29;20371;-76
2022/01/09 19:35:52;;;;;;;8.65;6.43;;;;;;;3.12;100.00;100689.25;10103110;29;20101;-76
2022/01/09 19:40:53;;;;;;;20.48;7.40;;;;;;;3.31;100.00;100689.06;10101109;29;20037;-76
2022/01/09 19:45:54;;;;;;;20.48;7.30;;;;;;;3.25;100.00;100700.38;10100108;29;20049;-77
2022/01/09 19:50:55;;;;;;;13.50;7.43;;;;;;;3.01;99.09;100704.53;10099500;29;20132;-76
2022/01/09 19:55:55;;;;;;;14.68;6.50;;;;;;;2.92;99.74;100710.81;10098870;29;20120;-77
2022/01/09 20:00:56;;;;;;;11.15;7.05;;;;;;;2.95;100.00;100729.22;10098891;29;20064;-77
2022/01/09 20:05:56;;;;;;;17.33;6.60;;;;;;;2.80;100.00;100728.06;10099503;29;20040;-76
2022/01/09 20:10:57;;;;;;;12.63;7.32;;;;;;;2.67;100.00;100749.81;10099211;29;20096;-76
2022/01/09 20:15:57;;;;;;;23.13;7.68;;;;;;;2.77;100.00;100741.72;10099686;29;20123;-76
2022/01/09 20:21:01;;;;;;;13.48;6.93;;;;;;;2.96;100.00;100746.94;10099813;29;20052;-76
2022/01/09 20:26:02;;;;;;;14.77;8.60;;;;;;;3.07;100.00;100750.41;10098159;29;20037;-76
2022/01/09 20:31:03;;;;;;;13.30;8.20;;;;;;;3.15;100.00;100758.50;10082326;29;20033;-76
2022/01/09 20:36:04;;;;;;;12.57;7.85;;;;;;;3.14;100.00;100763.03;10098665;29;20048;-76
2022/01/09 20:41:07;;;;;;;14.05;7.68;;;;;;;3.00;100.00;100764.41;10066524;29;20041;-76
2022/01/09 20:46:09;;;;;;;14.85;7.55;;;;;;;2.83;100.00;100781.25;10082184;29;20045;-76
2022/01/09 20:51:09;;;;;;;24.23;8.60;;;;;;;2.64;99.51;100792.06;10081588;29;20394;-76
2022/01/09 20:56:10;;;;;;;23.65;9.48;;;;;;;2.43;99.19;100801.16;10080912;29;20048;-76
2022/01/09 21:01:10;;;;;;;32.38;12.07;;;;;;;2.40;100.00;100795.28;10098039;29;20140;-76
2022/01/09 21:06:10;;;;;;;25.48;10.73;;;;;;;2.27;97.96;100803.63;10095834;29;20469;-76
2022/01/09 21:11:11;;;;;;;23.05;9.57;;;;;;;2.25;100.00;100818.94;10097896;29;20178;-76
2022/01/09 21:16:11;;;;;;;24.35;10.98;;;;;;;2.11;98.93;100833.63;10080878;29;20066;-76
2022/01/09 21:21:12;;;;;;;34.97;10.20;;;;;;;2.01;98.24;100817.63;10097352;29;20041;-76
2022/01/09 21:26:13;;;;;;;18.05;8.95;;;;;;;1.96;98.48;100841.22;10097669;29;20037;-76
2022/01/09 21:31:14;;;;;;;16.13;8.98;;;;;;;1.98;98.69;100862.44;10096589;29;20033;-76
2022/01/09 21:36:14;;;;;;;27.83;9.50;;;;;;;2.00;99.64;100869.31;10095820;29;20041;-76
2022/01/09 21:41:15;;;;;;;29.08;8.00;;;;;;;1.93;99.29;100883.41;10080296;29;20477;-79
2022/01/09 21:46:15;;;;;;;16.13;7.32;;;;;;;1.96;99.89;100883.13;10099114;29;20036;-76
2022/01/09 21:51:16;;;;;;;16.77;7.85;;;;;;;2.06;100.00;100890.13;10082216;29;20033;-76
2022/01/09 21:56:16;;;;;;;20.70;7.60;;;;;;;2.11;100.00;100897.72;10097702;29;20176;-76
2022/01/09 22:01:16;;;;;;;26.08;8.70;;;;;;;2.20;100.00;100902.22;10096869;29;20473;-76
2022/01/09 22:06:17;;;;;;;25.92;7.70;;;;;;;2.17;100.00;100897.16;10097489;29;20045;-77
2022/01/09 22:11:18;;;;;;;19.17;8.15;;;;;;;2.10;100.00;100904.88;10080572;29;20037;-77
2022/01/09 22:16:19;;;;;;;25.05;7.82;;;;;;;1.97;99.89;100908.84;10097819;29;20037;-77
2022/01/09 22:21:19;;;;;;;22.10;9.00;;;;;;;2.06;100.00;100924.00;10102870;29;20473;-77
2022/01/09 22:26:20;;;;;;;14.80;8.15;;;;;;;2.20;100.00;100920.91;10086405;29;20037;-76
2022/01/09 22:31:22;;;;;;;17.75;6.20;;;;;;;2.26;100.00;100938.19;10086529;29;20129;-76
2022/01/09 22:36:25;;;;;;;27.10;6.88;;;;;;;2.37;100.00;100946.06;10104059;29;20088;-77
2022/01/09 22:41:25;;;;;;;21.30;7.95;;;;;;;2.53;100.00;100961.50;10102615;29;20033;-77
2022/01/09 22:46:26;;;;;;;12.30;6.00;;;;;;;2.54;100.00;100958.69;10086877;29;20072;-76
2022/01/09 22:51:26;;;;;;;24.80;7.35;;;;;;;2.52;100.00;100966.00;10102482;29;20033;-77
2022/01/09 22:56:27;;;;;;;14.93;6.43;;;;;;;2.52;100.00;100959.78;10102917;29;20056;-75
2022/01/09 23:01:27;;;;;;;32.10;8.85;;;;;;;2.56;100.00;100967.41;10085662;29;20065;-76